Weather at Gusti Syamsir Alam Airport

Public forecast

Using degrees Celsius for public forecast. Weather courtesy of forecast.io.

Closest aviation weather report (METAR) to Gusti Syamsir Alam Airport

Closest report is Syamsudin Noor International Airport, 84.5 nm (156.5 km) W.

2024/06/16 20:30 (retrieved 30 minutes ago)

WAOO 162030Z AUTO VRB02KT 9999 OVC190 26/25 Q1009

Closest aviation forecast (TAF) to Gusti Syamsir Alam Airport

Closest forecast is Syamsudin Noor International Airport, 84.5 nm (156.5 km) W.

2024/06/16 18:40 (retrieved 2 hours ago)

TAF WAOO 161700Z 1618/1718 09008KT 9999 SCT018 TEMPO 1605/1609 6000 RA